Time;durP1;ratioP1;P1;durP2;ratioP2;P2;SDS_P1;SDS_P2;PMS_P1;PMS_P2;Temp;Humidity;BMP_temperature;BMP_pressure;BME280_temperature;BME280_humidity;BME280_pressure;Samples;Min_cycle;Max_cycle;Signal;HPM_P1;HPM_P2
2024/03/01 06:23:53;;;;;;;;;;;;;;;3.76;100.00;101031.33;1811620;78;20105;-72
2024/03/01 06:26:20;;;;;;;;;;;;;;;3.82;100.00;101035.98;1826313;78;20113;-72
2024/03/01 12:07:42;;;;;;;;;;;;;;;8.56;71.07;101001.59;1770033;80;20367;-73
2024/03/01 12:10:13;;;;;;;;;;;;;;;8.56;69.44;101000.75;1753662;82;20126;-74
2024/03/01 12:12:46;;;;;;;;;;;;;;;8.54;69.46;100996.05;1772110;80;20159;-72
2024/03/01 12:15:32;;;;;;;;;;;;;;;8.56;69.73;100998.16;1784886;80;20097;-71
2024/03/01 12:18:17;;;;;;;;;;;;;;;8.59;70.48;100992.86;1779305;80;20243;-73
2024/03/01 12:21:05;;;;;;;;;;;;;;;8.64;74.19;100993.11;1734725;80;20133;-73
2024/03/01 12:23:37;;;;;;;;;;;;;;;8.66;76.20;100989.17;1782202;80;20530;-71
2024/03/01 12:26:04;;;;;;;;;;;;;;;8.66;77.38;100993.06;1755122;80;20097;-76
2024/03/01 12:28:48;;;;;;;;;;;;;;;8.64;78.34;100989.22;1758864;80;20135;-68
2024/03/01 12:31:27;;;;;;;;;;;;;;;8.59;79.33;100993.70;1754386;80;20154;-74
2024/03/01 12:34:09;;;;;;;;;;;;;;;8.57;80.49;100994.20;1755119;80;20126;-72
2024/03/01 12:36:42;;;;;;;;;;;;;;;8.54;80.22;100995.60;1752752;82;20130;-71
2024/03/01 12:39:11;;;;;;;;;;;;;;;8.47;80.52;100991.50;1754940;80;20098;-72
2024/03/01 12:42:05;;;;;;;;;;;;;;;8.41;81.07;100981.31;1768414;80;20417;-73
2024/03/01 12:44:56;;;;;;;;;;;;;;;8.37;81.68;100981.48;1748379;80;20161;-72
2024/03/01 12:47:44;;;;;;;;;;;;;;;8.34;82.82;100979.84;1773009;81;20124;-70
2024/03/01 12:50:32;;;;;;;;;;;;;;;8.29;83.05;100989.03;1769414;81;20138;-72
2024/03/01 12:53:27;;;;;;;;;;;;;;;8.25;82.94;100987.88;1775327;81;20127;-69
2024/03/01 12:56:16;;;;;;;;;;;;;;;8.23;82.68;100987.92;1765921;80;20091;-72
2024/03/01 12:59:00;;;;;;;;;;;;;;;8.21;82.80;100984.97;1754596;82;20131;-71
2024/03/01 13:01:31;;;;;;;;;;;;;;;8.22;83.11;100981.48;1758809;80;20124;-72
2024/03/01 13:04:07;;;;;;;;;;;;;;;8.26;83.09;100980.49;1766245;80;20108;-72
2024/03/01 13:06:34;;;;;;;;;;;;;;;8.31;82.60;100972.97;1765032;80;20210;-73
2024/03/01 13:09:14;;;;;;;;;;;;;;;8.36;82.11;100974.16;1762026;81;20138;-75
2024/03/01 13:11:38;;;;;;;;;;;;;;;8.40;81.51;100966.64;1775451;80;20174;-75
2024/03/01 13:14:10;;;;;;;;;;;;;;;8.42;78.14;100967.44;1772950;80;20163;-74
2024/03/01 13:16:36;;;;;;;;;;;;;;;8.43;77.20;100966.54;1750998;82;20172;-71
2024/03/01 13:19:23;;;;;;;;;;;;;;;8.45;75.44;100970.39;1753916;82;20142;-73
2024/03/01 13:22:00;;;;;;;;;;;;;;;8.49;74.75;100970.69;1767784;80;20452;-75
2024/03/01 13:24:52;;;;;;;;;;;;;;;8.53;74.54;100965.35;1761531;80;20132;-71
2024/03/01 13:27:41;;;;;;;;;;;;;;;8.56;76.77;100970.89;1759946;80;20437;-71
2024/03/01 13:30:19;;;;;;;;;;;;;;;8.57;75.86;100966.10;1687445;83;20139;-72
2024/03/01 13:32:43;;;;;;;;;;;;;;;8.60;77.09;100973.79;1689100;83;20135;-73
2024/03/01 13:35:14;;;;;;;;;;;;;;;8.59;77.88;100966.90;1722452;80;20124;-73
2024/03/01 13:38:03;;;;;;;;;;;;;;;8.57;78.26;100965.66;1763925;80;20119;-72
2024/03/01 13:40:31;;;;;;;;;;;;;;;8.55;78.93;100962.70;1767681;80;20108;-73
2024/03/01 13:43:07;;;;;;;;;;;;;;;8.57;79.01;100967.40;1765364;80;20406;-75
2024/03/01 13:45:35;;;;;;;;;;;;;;;8.57;79.00;100959.16;1761426;80;20523;-71
2024/03/01 13:48:09;;;;;;;;;;;;;;;8.58;79.09;100958.27;1764994;80;20142;-73
2024/03/01 13:50:39;;;;;;;;;;;;;;;8.60;78.66;100955.17;1766428;80;20123;-74
2024/03/01 13:53:16;;;;;;;;;;;;;;;8.60;79.08;100964.25;1765979;80;20438;-73
2024/03/01 13:55:44;;;;;;;;;;;;;;;8.59;79.31;100953.47;1765264;80;20130;-72
2024/03/01 13:58:10;;;;;;;;;;;;;;;8.56;79.37;100946.23;1761964;80;20108;-74
2024/03/01 14:00:38;;;;;;;;;;;;;;;8.55;80.39;100945.38;1766109;80;20197;-73
2024/03/01 14:05:51;;;;;;;;;;;;;;;8.50;81.63;100943.84;1763041;80;20130;-71
2024/03/01 14:08:22;;;;;;;;;;;;;;;8.46;81.19;100942.23;1775766;80;20127;-73
2024/03/01 14:10:49;;;;;;;;;;;;;;;8.40;81.29;100941.17;1783161;80;20110;-73
2024/03/01 14:13:15;;;;;;;;;;;;;;;8.33;81.76;100940.06;1778165;80;20400;-74
2024/03/01 14:15:44;;;;;;;;;;;;;;;8.29;81.78;100939.73;1761100;80;20132;-74
2024/03/01 14:18:11;;;;;;;;;;;;;;;8.22;81.58;100929.14;1775479;80;20377;-73
2024/03/01 14:20:38;;;;;;;;;;;;;;;8.16;81.54;100933.23;1787170;80;20174;-72
2024/03/01 14:23:05;;;;;;;;;;;;;;;8.13;81.68;100935.92;1797022;80;20116;-71
2024/03/01 14:25:39;;;;;;;;;;;;;;;8.09;81.84;100941.25;1780481;80;20119;-76
2024/03/01 14:28:06;;;;;;;;;;;;;;;8.02;81.51;100942.73;1750796;80;20144;-74
2024/03/01 14:30:59;;;;;;;;;;;;;;;7.99;81.38;100940.27;1780436;80;20122;-75
2024/03/01 14:33:13;;;;;;;;;;;;;;;7.95;80.98;100939.11;1776588;80;20135;-74
